Mahto, South Dakota
Current Conditions -  °F | °C
As of 6:52 AM on Sunday 25 Jan 2015 (Local Time) from KMBG Reporting Station
Overcast Overcast  
Wind Chill: 29°   Ceiling: 1400
Heat Index: 37°   Visibility: 10mi
Dew Point: 33°   Wind: 12mph
Humidity: 86%   Direction: 320°NW
Pressure: 29.95"   Gusts: NA
Location:  45.76°N, 100.68°W
Report Text: KMBG 251352Z AUTO 32010KT 10SM OVC014 03/01 A2995 RMK AO2 SLP156 T00280006
Loading
Personal Weather Stations






























Interactive Weather Map New forecast layout! Learn more

10-Day Weather Forecast

Advertisements
Track Severe Weather on mobile